Time;durP1;ratioP1;P1;durP2;ratioP2;P2;SDS_P1;SDS_P2;PMS_P1;PMS_P2;Temp;Humidity;BMP_temperature;BMP_pressure;BME280_temperature;BME280_humidity;BME280_pressure;Samples;Min_cycle;Max_cycle;Signal;HPM_P1;HPM_P2
2021/05/11 00:00:25;;;;;;;2.60;1.38;;;;;;;;;;10318591;28;20543;-61
2021/05/11 00:05:29;;;;;;;1.58;1.23;;;;;;;;;;10319018;28;20051;-61
2021/05/11 00:10:27;;;;;;;1.33;1.23;;;;;;;;;;10318869;28;20076;-62
2021/05/11 00:15:24;;;;;;;2.22;1.40;;;;;;;;;;10316620;28;20077;-61
2021/05/11 00:20:22;;;;;;;2.25;1.20;;;;;;;;;;10318374;28;20049;-62
2021/05/11 00:25:20;;;;;;;1.85;1.38;;;;;;;;;;10318232;28;20071;-61
2021/05/11 00:30:18;;;;;;;1.40;1.23;;;;;;;;;;10318300;28;20477;-62
2021/05/11 00:35:15;;;;;;;1.70;1.10;;;;;;;;;;10317898;28;20047;-61
2021/05/11 00:40:13;;;;;;;1.38;1.27;;;;;;;;;;10317788;28;20512;-62
2021/05/11 00:45:11;;;;;;;1.85;1.35;;;;;;;;;;10317601;28;20048;-62
2021/05/11 00:50:09;;;;;;;2.50;1.77;;;;;;;;;;10316952;28;20056;-61
2021/05/11 00:55:08;;;;;;;1.67;1.42;;;;;;;;;;10317409;28;20076;-61
2021/05/11 01:00:06;;;;;;;2.35;1.50;;;;;;;;;;10314707;28;20476;-62
2021/05/11 01:05:06;;;;;;;1.92;1.52;;;;;;;;;;10317159;28;20075;-61
2021/05/11 01:10:04;;;;;;;2.00;1.70;;;;;;;;;;10317061;28;20049;-62
2021/05/11 01:15:01;;;;;;;1.70;1.25;;;;;;;;;;10316867;28;20095;-61
2021/05/11 01:20:00;;;;;;;1.65;1.35;;;;;;;;;;10315853;28;20066;-61
2021/05/11 01:25:01;;;;;;;1.52;1.33;;;;;;;;;;10316679;28;20048;-62
2021/05/11 01:30:08;;;;;;;1.48;1.20;;;;;;;;;;10316493;28;20116;-62
2021/05/11 01:51:12;;;;;;;1.40;1.30;;;;;;;;;;10315627;28;20079;-60
2021/05/11 02:22:44;;;;;;;3.33;1.95;;;;;;;;;;10321998;28;20072;-61
2021/05/11 02:27:43;;;;;;;2.60;2.08;;;;;;;;;;10322513;28;20056;-62
2021/05/11 02:32:45;;;;;;;3.20;2.30;;;;;;;;;;10321823;28;20480;-61
2021/05/11 02:37:42;;;;;;;1.98;1.45;;;;;;;;;;10321342;28;20041;-62
2021/05/11 02:42:41;;;;;;;2.05;1.60;;;;;;;;;;10321830;28;20056;-61
2021/05/11 02:47:48;;;;;;;2.60;1.70;;;;;;;;;;10321565;28;20095;-61
2021/05/11 02:52:45;;;;;;;3.80;1.70;;;;;;;;;;10321243;28;20083;-62
2021/05/11 02:57:43;;;;;;;1.92;1.75;;;;;;;;;;10320543;28;20060;-61
2021/05/11 03:02:41;;;;;;;2.60;1.98;;;;;;;;;;10298398;28;20061;-61
2021/05/11 03:07:39;;;;;;;3.15;2.15;;;;;;;;;;10297405;28;20071;-61
2021/05/11 03:12:37;;;;;;;4.88;2.90;;;;;;;;;;10297002;28;20083;-62
2021/05/11 03:17:34;;;;;;;3.05;2.00;;;;;;;;;;10286012;28;20099;-61
2021/05/11 03:22:33;;;;;;;2.63;1.80;;;;;;;;;;10311910;28;20365;-61
2021/05/11 03:27:30;;;;;;;4.00;1.70;;;;;;;;;;10289429;28;20091;-61
2021/05/11 03:32:27;;;;;;;3.85;1.88;;;;;;;;;;10289198;28;20077;-62
2021/05/11 03:37:25;;;;;;;3.33;2.13;;;;;;;;;;10288798;28;20064;-60
2021/05/11 03:42:26;;;;;;;7.80;2.83;;;;;;;;;;10314138;28;20083;-62
2021/05/11 03:47:25;;;;;;;2.85;2.40;;;;;;;;;;10315121;28;20064;-62
2021/05/11 03:52:23;;;;;;;9.95;3.22;;;;;;;;;;10314795;28;20072;-61
2021/05/11 03:57:21;;;;;;;3.88;2.72;;;;;;;;;;10316604;28;20088;-61
2021/05/11 04:02:20;;;;;;;3.10;2.00;;;;;;;;;;10319056;28;20421;-62
2021/05/11 04:07:18;;;;;;;7.38;2.60;;;;;;;;;;10318534;28;20036;-61
2021/05/11 04:17:43;;;;;;;3.65;2.25;;;;;;;;;;10271348;28;20083;-61
2021/05/11 04:22:41;;;;;;;2.42;2.20;;;;;;;;;;10318109;28;20040;-61
2021/05/11 04:27:39;;;;;;;5.55;2.60;;;;;;;;;;10318309;28;20421;-61
2021/05/11 04:32:37;;;;;;;4.43;2.58;;;;;;;;;;10315655;28;20510;-61
2021/05/11 04:37:36;;;;;;;2.70;2.00;;;;;;;;;;10317875;28;20047;-61
2021/05/11 04:42:34;;;;;;;5.05;2.35;;;;;;;;;;10317307;28;20071;-61
2021/05/11 04:47:46;;;;;;;5.22;2.17;;;;;;;;;;10317188;28;20126;-61
2021/05/11 04:52:45;;;;;;;3.50;2.80;;;;;;;;;;10313100;28;20079;-61
2021/05/11 04:57:43;;;;;;;7.35;2.58;;;;;;;;;;10312875;28;20079;-61
2021/05/11 05:02:42;;;;;;;3.28;2.55;;;;;;;;;;10312776;28;20064;-61
2021/05/11 05:07:41;;;;;;;4.35;2.05;;;;;;;;;;10316927;28;20072;-61
2021/05/11 05:12:39;;;;;;;2.00;1.80;;;;;;;;;;10316417;28;20470;-61
2021/05/11 05:17:37;;;;;;;4.28;2.22;;;;;;;;;;10316751;28;20106;-61
2021/05/11 05:22:36;;;;;;;5.55;1.90;;;;;;;;;;10316335;28;20045;-61
2021/05/11 05:27:39;;;;;;;3.72;2.30;;;;;;;;;;10316458;28;20083;-60
2021/05/11 05:32:37;;;;;;;7.57;2.40;;;;;;;;;;10316107;28;20084;-61
2021/05/11 05:37:36;;;;;;;5.45;3.22;;;;;;;;;;10316443;28;20071;-60
2021/05/11 05:42:34;;;;;;;3.83;1.92;;;;;;;;;;10315888;28;20074;-61
2021/05/11 05:47:31;;;;;;;6.22;3.03;;;;;;;;;;10324012;28;20075;-61
2021/05/11 05:52:36;;;;;;;2.08;1.77;;;;;;;;;;10323872;28;20083;-60
2021/05/11 05:57:35;;;;;;;3.40;1.90;;;;;;;;;;10323177;28;20056;-60
2021/05/11 06:02:34;;;;;;;3.40;2.17;;;;;;;;;;10323741;28;20079;-60
2021/05/11 06:07:33;;;;;;;4.03;2.30;;;;;;;;;;10323725;28;20071;-60
2021/05/11 06:12:36;;;;;;;3.17;1.70;;;;;;;;;;10323183;28;20175;-60
2021/05/11 06:17:34;;;;;;;2.40;1.80;;;;;;;;;;10322887;28;20087;-61
2021/05/11 06:22:32;;;;;;;3.10;1.75;;;;;;;;;;10323343;28;20053;-60
2021/05/11 06:27:31;;;;;;;1.75;1.60;;;;;;;;;;10322703;28;20048;-61
2021/05/11 06:32:29;;;;;;;1.73;1.50;;;;;;;;;;10322497;28;20076;-61
2021/05/11 06:37:27;;;;;;;2.97;1.65;;;;;;;;;;10322440;28;20052;-61
2021/05/11 06:42:27;;;;;;;4.82;2.10;;;;;;;;;;10322387;28;20045;-61
2021/05/11 06:47:31;;;;;;;3.45;1.50;;;;;;;;;;10321598;28;20063;-62
2021/05/11 06:57:45;;;;;;;3.88;1.60;;;;;;;;;;10320437;28;20529;-61
2021/05/11 07:02:50;;;;;;;2.20;1.55;;;;;;;;;;10321062;28;20068;-61
2021/05/11 07:07:55;;;;;;;3.53;1.95;;;;;;;;;;10321874;28;20051;-61
2021/05/11 07:13:14;;;;;;;4.18;1.70;;;;;;;;;;10321144;28;20072;-61
2021/05/11 07:18:14;;;;;;;7.30;3.83;;;;;;;;;;10320631;28;20049;-61
2021/05/11 07:23:16;;;;;;;5.35;2.42;;;;;;;;;;10320834;28;20040;-61
2021/05/11 07:33:45;;;;;;;4.85;2.22;;;;;;;;;;10273563;28;20182;-61
2021/05/11 07:38:44;;;;;;;4.20;2.20;;;;;;;;;;10319332;28;20071;-61
2021/05/11 07:43:43;;;;;;;5.22;2.47;;;;;;;;;;10320011;28;20049;-61
2021/05/11 08:04:34;;;;;;;3.85;1.50;;;;;;;;;;10306396;28;20052;-61
2021/05/11 08:10:05;;;;;;;6.57;2.33;;;;;;;;;;10318158;28;20061;-62
2021/05/11 08:15:11;;;;;;;2.47;1.35;;;;;;;;;;10319013;28;20040;-62
2021/05/11 08:20:18;;;;;;;4.38;2.25;;;;;;;;;;10318885;28;20076;-61
2021/05/11 08:30:34;;;;;;;3.80;1.98;;;;;;;;;;10318312;28;20080;-61
2021/05/11 08:35:31;;;;;;;3.90;1.65;;;;;;;;;;10317794;28;20321;-61
2021/05/11 08:40:32;;;;;;;4.32;1.83;;;;;;;;;;10318292;28;20072;-61
2021/05/11 08:45:30;;;;;;;1.40;1.30;;;;;;;;;;10317520;28;20044;-61
2021/05/11 08:50:33;;;;;;;4.80;1.88;;;;;;;;;;10317239;28;20130;-61
2021/05/11 09:06:09;;;;;;;1.77;1.60;;;;;;;;;;10316629;28;20036;-62
2021/05/11 09:16:47;;;;;;;10.95;1.50;;;;;;;;;;10316883;28;20115;-62
2021/05/11 09:27:05;;;;;;;4.97;1.65;;;;;;;;;;10303660;28;20088;-62
2021/05/11 09:32:20;;;;;;;1.38;1.27;;;;;;;;;;10316218;28;20464;-62
2021/05/11 09:58:51;;;;;;;3.72;1.15;;;;;;;;;;10316031;28;20099;-61
2021/05/11 10:41:30;;;;;;;2.60;2.13;;;;;;;;;;10155917;28;20459;-61
2021/05/11 10:46:52;;;;;;;10.02;2.00;;;;;;;;;;10288139;28;20052;-62
2021/05/11 10:52:04;;;;;;;8.95;2.63;;;;;;;;;;10321695;28;20072;-61
2021/05/11 10:57:04;;;;;;;3.05;2.03;;;;;;;;;;10320462;28;20048;-61
2021/05/11 11:02:24;;;;;;;2.55;1.58;;;;;;;;;;10321658;28;20474;-61
2021/05/11 11:07:32;;;;;;;2.83;2.40;;;;;;;;;;10321176;28;20068;-61
2021/05/11 11:12:37;;;;;;;4.35;1.42;;;;;;;;;;10321268;28;20091;-61
2021/05/11 11:17:39;;;;;;;5.63;1.98;;;;;;;;;;10320567;28;20510;-62
2021/05/11 11:27:55;;;;;;;4.60;2.38;;;;;;;;;;10320553;28;20048;-62
2021/05/11 11:33:01;;;;;;;3.88;2.95;;;;;;;;;;10319982;28;20076;-62
2021/05/11 11:38:00;;;;;;;3.22;1.40;;;;;;;;;;10320040;28;20059;-62
2021/05/11 11:42:58;;;;;;;5.47;3.28;;;;;;;;;;10319781;28;20535;-62
2021/05/11 11:47:57;;;;;;;4.50;1.77;;;;;;;;;;10319064;28;20524;-60
2021/05/11 11:53:04;;;;;;;4.45;1.77;;;;;;;;;;10319367;28;20090;-62
2021/05/11 11:58:03;;;;;;;2.03;1.85;;;;;;;;;;10319288;28;20094;-62
2021/05/11 12:03:01;;;;;;;3.33;1.38;;;;;;;;;;10319159;28;20048;-63
2021/05/11 12:08:06;;;;;;;3.03;1.83;;;;;;;;;;10318954;28;20043;-62
2021/05/11 12:13:06;;;;;;;1.92;1.65;;;;;;;;;;10319080;28;20110;-62
2021/05/11 12:18:07;;;;;;;3.63;2.17;;;;;;;;;;10318473;28;20079;-62
2021/05/11 12:23:23;;;;;;;2.63;1.50;;;;;;;;;;10318681;28;20068;-62
2021/05/11 12:28:32;;;;;;;17.45;2.67;;;;;;;;;;10318232;28;20076;-62
2021/05/11 12:33:33;;;;;;;2.75;2.05;;;;;;;;;;10317984;28;20099;-62
2021/05/11 12:38:32;;;;;;;8.45;2.92;;;;;;;;;;10318320;28;20052;-62
2021/05/11 12:43:41;;;;;;;2.47;1.58;;;;;;;;;;10317662;28;20417;-62
2021/05/11 12:48:48;;;;;;;4.63;2.28;;;;;;;;;;10317814;28;20051;-62
2021/05/11 12:53:48;;;;;;;4.60;1.13;;;;;;;;;;10317066;28;20087;-62
2021/05/11 12:59:00;;;;;;;5.90;1.80;;;;;;;;;;10317207;28;20053;-61
2021/05/11 13:04:22;;;;;;;2.47;1.83;;;;;;;;;;10317634;28;20095;-62
2021/05/11 13:09:33;;;;;;;5.00;1.30;;;;;;;;;;10317894;28;20055;-62
2021/05/11 13:20:12;;;;;;;3.53;1.35;;;;;;;;;;10269436;28;20490;-62
2021/05/11 13:25:24;;;;;;;1.48;0.98;;;;;;;;;;10317261;28;20044;-62
2021/05/11 13:36:07;;;;;;;1.50;1.40;;;;;;;;;;10280182;28;20065;-62
2021/05/11 13:41:05;;;;;;;6.70;2.70;;;;;;;;;;10316256;28;20056;-61
2021/05/11 13:46:04;;;;;;;3.40;1.95;;;;;;;;;;10316149;28;20447;-62
2021/05/11 13:51:13;;;;;;;4.27;1.80;;;;;;;;;;10316103;28;20090;-62
2021/05/11 13:56:20;;;;;;;3.97;2.00;;;;;;;;;;10316165;28;20295;-61
2021/05/11 14:01:47;;;;;;;3.47;2.60;;;;;;;;;;10314991;28;20087;-62
2021/05/11 14:06:46;;;;;;;3.90;1.60;;;;;;;;;;10319700;28;20064;-62
2021/05/11 14:11:45;;;;;;;2.15;1.33;;;;;;;;;;10323657;28;20549;-62
2021/05/11 14:16:45;;;;;;;2.20;1.60;;;;;;;;;;10323457;28;20060;-62
2021/05/11 14:21:43;;;;;;;4.43;1.30;;;;;;;;;;10322642;28;20045;-62
2021/05/11 14:26:41;;;;;;;3.65;1.40;;;;;;;;;;10321263;28;20114;-62
2021/05/11 14:31:39;;;;;;;1.98;1.17;;;;;;;;;;10288651;28;20083;-61
2021/05/11 14:36:38;;;;;;;3.20;1.40;;;;;;;;;;10299915;28;20478;-63
2021/05/11 14:41:36;;;;;;;2.72;1.40;;;;;;;;;;10296847;28;20071;-62
2021/05/11 14:46:34;;;;;;;1.92;1.30;;;;;;;;;;10299411;28;20059;-62
2021/05/11 14:51:32;;;;;;;4.93;1.65;;;;;;;;;;10301447;28;20395;-62
2021/05/11 14:56:31;;;;;;;3.25;1.55;;;;;;;;;;10281342;28;20509;-63
2021/05/11 15:01:29;;;;;;;3.08;1.73;;;;;;;;;;10281082;28;20084;-63
2021/05/11 15:06:30;;;;;;;2.50;1.50;;;;;;;;;;10296391;28;20505;-63
2021/05/11 15:11:28;;;;;;;4.82;1.30;;;;;;;;;;10321126;28;20512;-63
2021/05/11 15:16:27;;;;;;;2.72;1.48;;;;;;;;;;10302949;28;20453;-62
2021/05/11 15:21:26;;;;;;;4.35;2.22;;;;;;;;;;10304102;28;20063;-63
2021/05/11 15:26:31;;;;;;;5.88;1.95;;;;;;;;;;10320298;28;20056;-63
2021/05/11 15:31:29;;;;;;;4.07;1.52;;;;;;;;;;10302202;28;20067;-62
2021/05/11 15:36:27;;;;;;;4.00;2.42;;;;;;;;;;10296008;28;20067;-63
2021/05/11 15:41:25;;;;;;;7.25;2.17;;;;;;;;;;10298086;28;20045;-63
2021/05/11 15:46:23;;;;;;;2.20;1.58;;;;;;;;;;10297677;28;20072;-63
2021/05/11 15:51:22;;;;;;;5.40;1.70;;;;;;;;;;10290276;28;20067;-63
2021/05/11 15:56:20;;;;;;;5.28;1.80;;;;;;;;;;10293569;28;20064;-62
2021/05/11 16:01:18;;;;;;;9.38;3.03;;;;;;;;;;10313903;28;20056;-64
2021/05/11 16:06:16;;;;;;;3.55;2.72;;;;;;;;;;10313873;28;20524;-62
2021/05/11 16:11:14;;;;;;;4.50;2.38;;;;;;;;;;10297987;28;20071;-61
2021/05/11 16:16:13;;;;;;;7.07;4.30;;;;;;;;;;10297598;28;20087;-62
2021/05/11 16:21:11;;;;;;;5.30;1.52;;;;;;;;;;10297203;28;20095;-62
2021/05/11 16:26:09;;;;;;;13.18;2.58;;;;;;;;;;10296962;28;20071;-62
2021/05/11 16:31:07;;;;;;;6.15;1.73;;;;;;;;;;10295134;28;20071;-62
2021/05/11 16:36:05;;;;;;;7.60;3.45;;;;;;;;;;10314223;28;20076;-62
2021/05/11 16:41:03;;;;;;;6.53;1.38;;;;;;;;;;10313982;28;20556;-63
2021/05/11 16:46:02;;;;;;;11.45;5.63;;;;;;;;;;10313461;28;20065;-64
2021/05/11 16:51:03;;;;;;;5.05;2.20;;;;;;;;;;10314462;28;20071;-63
2021/05/11 16:56:01;;;;;;;5.70;2.63;;;;;;;;;;10317261;28;20044;-63
2021/05/11 17:00:59;;;;;;;7.85;5.80;;;;;;;;;;10316472;28;20048;-62
2021/05/11 17:05:57;;;;;;;14.02;11.13;;;;;;;;;;10316265;28;20052;-63
2021/05/11 17:11:04;;;;;;;21.83;14.23;;;;;;;;;;10316438;28;20060;-62
2021/05/11 17:16:02;;;;;;;21.95;18.30;;;;;;;;;;10316242;28;20080;-63
2021/05/11 17:21:00;;;;;;;12.55;9.93;;;;;;;;;;10316090;28;20489;-64
2021/05/11 17:25:58;;;;;;;11.63;7.63;;;;;;;;;;10316597;28;20045;-64
2021/05/11 17:30:58;;;;;;;9.98;6.95;;;;;;;;;;10316021;28;20044;-64
2021/05/11 17:35:56;;;;;;;9.38;4.00;;;;;;;;;;10315788;28;20079;-64
2021/05/11 17:40:56;;;;;;;6.93;1.77;;;;;;;;;;10319955;28;20079;-63
2021/05/11 17:45:54;;;;;;;8.65;2.20;;;;;;;;;;10323996;28;20049;-62
2021/05/11 17:50:55;;;;;;;4.53;2.13;;;;;;;;;;10323837;28;20048;-62
2021/05/11 17:55:53;;;;;;;5.10;3.20;;;;;;;;;;10323647;28;20079;-62
2021/05/11 18:00:52;;;;;;;4.38;2.15;;;;;;;;;;10323335;28;20080;-62
2021/05/11 18:05:50;;;;;;;8.35;2.50;;;;;;;;;;10322365;28;20513;-62
2021/05/11 18:10:49;;;;;;;3.60;2.00;;;;;;;;;;10323594;28;20048;-63
2021/05/11 18:15:46;;;;;;;17.50;14.93;;;;;;;;;;10321809;28;20048;-62
2021/05/11 18:20:45;;;;;;;6.72;3.80;;;;;;;;;;10322397;28;20053;-63
2021/05/11 18:25:43;;;;;;;42.30;8.15;;;;;;;;;;10322793;28;20044;-63
2021/05/11 18:30:41;;;;;;;28.35;6.07;;;;;;;;;;10320379;28;20057;-62
2021/05/11 18:35:40;;;;;;;12.38;3.20;;;;;;;;;;10300189;28;20071;-62
2021/05/11 18:40:37;;;;;;;22.25;5.65;;;;;;;;;;10283560;28;20064;-62
2021/05/11 18:45:35;;;;;;;10.75;5.30;;;;;;;;;;10293762;28;20067;-63
2021/05/11 18:50:38;;;;;;;5.90;2.70;;;;;;;;;;10316115;28;20506;-63
2021/05/11 18:55:39;;;;;;;3.63;2.80;;;;;;;;;;10311314;28;20064;-63
2021/05/11 19:00:39;;;;;;;10.05;2.10;;;;;;;;;;10289342;28;20700;-62
2021/05/11 19:05:38;;;;;;;6.80;2.30;;;;;;;;;;10295146;28;20083;-61
2021/05/11 19:10:37;;;;;;;9.10;3.85;;;;;;;;;;10297473;28;20131;-62
2021/05/11 19:15:35;;;;;;;3.97;1.77;;;;;;;;;;10300022;28;20471;-63
2021/05/11 19:20:32;;;;;;;2.28;1.58;;;;;;;;;;10286856;28;20060;-63
2021/05/11 19:25:31;;;;;;;2.38;1.73;;;;;;;;;;10292861;28;20471;-62
2021/05/11 19:30:34;;;;;;;3.67;1.60;;;;;;;;;;10288956;28;20075;-63
2021/05/11 19:35:33;;;;;;;6.97;1.55;;;;;;;;;;10285443;28;20072;-61
2021/05/11 19:40:32;;;;;;;2.58;1.55;;;;;;;;;;10292638;28;20084;-63
2021/05/11 19:45:30;;;;;;;5.53;1.70;;;;;;;;;;10292874;28;20067;-62
2021/05/11 19:50:28;;;;;;;1.80;1.30;;;;;;;;;;10286383;28;20080;-62
2021/05/11 19:55:26;;;;;;;4.20;1.38;;;;;;;;;;10293810;28;20481;-61
2021/05/11 20:00:25;;;;;;;4.10;1.23;;;;;;;;;;10281405;28;20076;-62
2021/05/11 20:05:23;;;;;;;6.57;2.47;;;;;;;;;;10318954;28;20048;-63
2021/05/11 20:10:21;;;;;;;13.77;4.63;;;;;;;;;;10318223;28;20106;-61
2021/05/11 20:15:19;;;;;;;11.27;2.78;;;;;;;;;;10322267;28;20469;-62
2021/05/11 20:20:18;;;;;;;5.53;2.13;;;;;;;;;;10331135;28;20072;-62
2021/05/11 20:25:16;;;;;;;5.00;2.38;;;;;;;;;;10317855;28;20068;-63
2021/05/11 20:30:17;;;;;;;2.22;1.58;;;;;;;;;;10318541;28;20479;-63
2021/05/11 20:35:16;;;;;;;2.58;1.20;;;;;;;;;;10318397;28;20084;-61
2021/05/11 20:40:16;;;;;;;3.83;1.83;;;;;;;;;;10317260;28;20071;-62
2021/05/11 20:45:14;;;;;;;2.17;1.90;;;;;;;;;;10318164;28;20041;-62
2021/05/11 20:50:12;;;;;;;1.23;1.10;;;;;;;;;;10318009;28;20044;-62
2021/05/11 20:55:10;;;;;;;3.17;1.63;;;;;;;;;;10317800;28;20072;-61
2021/05/11 21:00:10;;;;;;;1.35;1.20;;;;;;;;;;10317212;28;20056;-63
2021/05/11 21:05:08;;;;;;;2.38;1.65;;;;;;;;;;10317031;28;20041;-62
2021/05/11 21:10:07;;;;;;;2.22;1.60;;;;;;;;;;10317518;28;20490;-62
2021/05/11 21:15:06;;;;;;;2.22;1.40;;;;;;;;;;10316793;28;20072;-62
2021/05/11 21:20:06;;;;;;;1.13;1.00;;;;;;;;;;10317257;28;20532;-62
2021/05/11 21:25:05;;;;;;;1.63;1.20;;;;;;;;;;10316967;28;20049;-62
2021/05/11 21:30:03;;;;;;;2.70;1.05;;;;;;;;;;10317034;28;20060;-62
2021/05/11 21:35:01;;;;;;;1.77;1.02;;;;;;;;;;10316812;28;20087;-62
2021/05/11 21:40:00;;;;;;;2.55;1.08;;;;;;;;;;10316820;28;20040;-63
2021/05/11 21:44:58;;;;;;;5.97;1.50;;;;;;;;;;10317119;28;20428;-62
2021/05/11 21:49:56;;;;;;;4.95;1.63;;;;;;;;;;10317109;28;20072;-62
2021/05/11 21:54:54;;;;;;;3.10;1.38;;;;;;;;;;10316408;28;20524;-63
2021/05/11 21:59:52;;;;;;;1.40;1.13;;;;;;;;;;10316069;28;20434;-62
2021/05/11 22:04:50;;;;;;;2.50;1.27;;;;;;;;;;10316484;28;20072;-62
2021/05/11 22:09:48;;;;;;;1.88;1.35;;;;;;;;;;10316318;28;20046;-62
2021/05/11 22:14:46;;;;;;;5.55;1.30;;;;;;;;;;10316186;28;20083;-62
2021/05/11 22:19:44;;;;;;;1.50;1.20;;;;;;;;;;10316025;28;20552;-62
2021/05/11 22:24:42;;;;;;;1.30;1.17;;;;;;;;;;10315753;28;20041;-62
2021/05/11 22:29:40;;;;;;;0.82;0.80;;;;;;;;;;10323225;28;20056;-62
2021/05/11 22:34:38;;;;;;;1.13;1.02;;;;;;;;;;10322933;28;20048;-62
2021/05/11 22:39:37;;;;;;;1.58;1.20;;;;;;;;;;10323181;28;20052;-62
2021/05/11 22:44:35;;;;;;;1.17;1.08;;;;;;;;;;10322602;28;20127;-62
2021/05/11 22:49:32;;;;;;;2.45;1.60;;;;;;;;;;10322552;28;20049;-62
2021/05/11 22:54:30;;;;;;;4.70;1.17;;;;;;;;;;10322152;28;20084;-62
2021/05/11 22:59:29;;;;;;;1.60;1.50;;;;;;;;;;10320375;28;20426;-62
2021/05/11 23:04:27;;;;;;;2.35;1.10;;;;;;;;;;10322014;28;20402;-63
2021/05/11 23:09:25;;;;;;;0.80;0.80;;;;;;;;;;10321724;28;20099;-62
2021/05/11 23:14:25;;;;;;;0.93;0.80;;;;;;;;;;10321225;28;20495;-63
2021/05/11 23:19:28;;;;;;;1.30;1.20;;;;;;;;;;10321282;28;20048;-62
2021/05/11 23:24:26;;;;;;;1.98;1.77;;;;;;;;;;10321127;28;20052;-62
2021/05/11 23:29:23;;;;;;;1.20;1.10;;;;;;;;;;10321336;28;20041;-62
2021/05/11 23:34:23;;;;;;;2.72;1.30;;;;;;;;;;10321020;28;20076;-62
2021/05/11 23:39:22;;;;;;;4.07;1.75;;;;;;;;;;10320428;28;20060;-62
2021/05/11 23:44:23;;;;;;;1.00;0.90;;;;;;;;;;10319539;28;20080;-62
2021/05/11 23:49:21;;;;;;;1.17;1.08;;;;;;;;;;10320253;28;20056;-62
2021/05/11 23:54:18;;;;;;;1.38;1.27;;;;;;;;;;10327610;28;20075;-63
2021/05/11 23:59:17;;;;;;;2.30;1.00;;;;;;;;;;10352280;28;20063;-62
